Time;durP1;ratioP1;P1;durP2;ratioP2;P2;SDS_P1;SDS_P2;PMS_P1;PMS_P2;Temp;Humidity;BMP_temperature;BMP_pressure;BME280_temperature;BME280_humidity;BME280_pressure;Samples;Min_cycle;Max_cycle;Signal;HPM_P1;HPM_P2
2022/06/10 00:00:23;;;;;;;;;;;;;;;20.89;51.60;99979.81;122789;1105;105656;-76
2022/06/10 00:03:06;;;;;;;;;;;;;;;20.83;52.15;99980.80;122953;1105;104555;-76
2022/06/10 00:05:41;;;;;;;;;;;;;;;20.76;52.50;99981.78;122881;1105;104390;-76
2022/06/10 00:08:11;;;;;;;;;;;;;;;20.72;52.02;99984.52;122798;1105;104482;-76
2022/06/10 00:10:39;;;;;;;;;;;;;;;20.66;52.68;99977.47;122634;1105;105813;-76
2022/06/10 00:13:07;;;;;;;;;;;;;;;20.62;52.93;99986.41;122852;1105;104447;-76
2022/06/10 00:15:35;;;;;;;;;;;;;;;20.53;53.17;99989.19;123041;1106;104303;-76
2022/06/10 00:18:03;;;;;;;;;;;;;;;20.44;52.92;99985.75;123474;1105;104364;-76
2022/06/10 00:20:31;;;;;;;;;;;;;;;20.34;53.65;99992.09;123601;1105;104264;-76
2022/06/10 00:22:59;;;;;;;;;;;;;;;20.23;53.88;99984.23;123121;1105;104507;-76
2022/06/10 00:25:29;;;;;;;;;;;;;;;20.19;54.01;99985.16;123025;1105;104443;-76
2022/06/10 00:27:57;;;;;;;;;;;;;;;20.13;53.08;99992.34;123196;1105;104373;-76
2022/06/10 00:30:28;;;;;;;;;;;;;;;20.06;54.25;99992.41;123464;1105;104184;-76
2022/06/10 00:32:59;;;;;;;;;;;;;;;19.99;53.40;99990.73;123781;1104;104329;-76
2022/06/10 00:35:27;;;;;;;;;;;;;;;19.96;54.87;99990.77;122808;1105;104421;-76
2022/06/10 00:38:02;;;;;;;;;;;;;;;19.92;54.90;99989.03;123939;1105;104470;-76
2022/06/10 00:40:31;;;;;;;;;;;;;;;19.87;55.37;99999.73;123695;1105;104572;-76
2022/06/10 00:42:59;;;;;;;;;;;;;;;19.84;56.20;99999.76;123486;1105;104402;-76
2022/06/10 00:45:45;;;;;;;;;;;;;;;19.80;54.33;99991.82;123642;1105;104495;-76
2022/06/10 00:48:15;;;;;;;;;;;;;;;19.75;56.20;99994.49;123236;1105;104405;-76
2022/06/10 00:50:49;;;;;;;;;;;;;;;19.72;56.02;99992.73;122992;1105;104367;-76
2022/06/10 00:53:19;;;;;;;;;;;;;;;19.70;54.98;99985.68;123007;1105;104437;-76
2022/06/10 00:55:48;;;;;;;;;;;;;;;19.68;56.04;99982.12;123032;1105;104181;-76
2022/06/10 00:58:19;;;;;;;;;;;;;;;19.66;56.47;99982.14;122868;1105;104427;-76
2022/06/10 01:00:47;;;;;;;;;;;;;;;19.66;55.91;99983.94;122713;1105;104818;-75
2022/06/10 01:03:14;;;;;;;;;;;;;;;19.66;56.07;99987.47;122777;1106;104408;-77
2022/06/10 01:05:42;;;;;;;;;;;;;;;19.66;56.12;99981.27;122602;1105;104421;-76
2022/06/10 01:08:13;;;;;;;;;;;;;;;19.66;56.14;99979.48;122657;1106;104366;-76
2022/06/10 01:10:48;;;;;;;;;;;;;;;19.65;55.45;99988.38;122685;1105;104315;-76
2022/06/10 01:13:23;;;;;;;;;;;;;;;19.66;55.69;99990.12;122769;1105;104448;-76
2022/06/10 01:15:56;;;;;;;;;;;;;;;19.65;56.19;99985.72;122835;1105;104414;-76
2022/06/10 01:18:31;;;;;;;;;;;;;;;19.63;55.37;99974.19;122978;1105;104392;-77
2022/06/10 01:21:08;;;;;;;;;;;;;;;19.62;56.31;99980.43;123292;1105;104380;-77
2022/06/10 01:24:00;;;;;;;;;;;;;;;19.57;56.82;99980.47;123112;1105;104367;-77
2022/06/10 01:30:00;;;;;;;;;;;;;;;19.44;57.71;99994.77;122659;1109;104268;-76
2022/06/10 01:32:33;;;;;;;;;;;;;;;19.40;57.17;99993.06;122533;1108;104306;-77
2022/06/10 01:35:07;;;;;;;;;;;;;;;19.39;57.45;99989.48;122635;1105;104387;-77
2022/06/10 01:37:39;;;;;;;;;;;;;;;19.39;58.00;99992.15;122909;1105;104287;-76
2022/06/10 01:40:12;;;;;;;;;;;;;;;19.38;58.35;99993.07;123454;1105;104431;-76
2022/06/10 01:42:45;;;;;;;;;;;;;;;19.35;57.41;99997.51;123003;1104;105819;-77
2022/06/10 01:45:17;;;;;;;;;;;;;;;19.40;57.35;99993.06;122894;1105;104438;-77
2022/06/10 01:47:47;;;;;;;;;;;;;;;19.44;58.04;99999.22;122989;1105;104447;-77
2022/06/10 01:50:18;;;;;;;;;;;;;;;19.40;57.92;99993.92;123006;1105;104382;-76
2022/06/10 01:52:49;;;;;;;;;;;;;;;19.40;57.85;100004.56;122767;1105;104393;-77
2022/06/10 01:55:19;;;;;;;;;;;;;;;19.39;58.53;100002.80;122927;1105;104285;-76
2022/06/10 01:57:50;;;;;;;;;;;;;;;19.37;57.39;99999.27;123561;1105;104369;-76
2022/06/10 02:00:20;;;;;;;;;;;;;;;19.32;60.13;100003.77;123204;1105;104294;-76
2022/06/10 02:02:52;;;;;;;;;;;;;;;19.26;59.08;100001.15;123549;1104;104355;-76
2022/06/10 02:05:21;;;;;;;;;;;;;;;19.21;59.70;100005.59;123314;1105;104310;-76
2022/06/10 02:07:51;;;;;;;;;;;;;;;19.17;60.43;100004.75;123266;1105;104359;-76
2022/06/10 02:10:23;;;;;;;;;;;;;;;19.15;59.92;100013.62;122961;1105;104271;-76
2022/06/10 02:12:53;;;;;;;;;;;;;;;19.17;60.09;100009.20;122809;1105;104361;-76
2022/06/10 02:15:24;;;;;;;;;;;;;;;19.18;59.03;100017.16;123000;1105;104409;-76
2022/06/10 02:17:55;;;;;;;;;;;;;;;19.22;59.85;100023.33;122900;1105;104427;-76
2022/06/10 02:20:26;;;;;;;;;;;;;;;19.25;59.38;100033.95;123116;1105;104447;-76
2022/06/10 02:22:56;;;;;;;;;;;;;;;19.34;59.05;100036.55;123018;1105;104648;-75
2022/06/10 02:25:24;;;;;;;;;;;;;;;19.46;59.19;100046.22;122998;1105;104383;-76
2022/06/10 02:27:59;;;;;;;;;;;;;;;19.57;58.78;100049.66;123295;1105;104236;-76
2022/06/10 02:30:28;;;;;;;;;;;;;;;19.65;58.11;100049.59;123260;1105;104877;-76
2022/06/10 02:32:57;;;;;;;;;;;;;;;19.74;58.26;100045.95;123157;1105;104437;-76
2022/06/10 02:35:27;;;;;;;;;;;;;;;19.81;58.28;100060.14;122994;1105;104239;-76
2022/06/10 02:37:59;;;;;;;;;;;;;;;19.86;58.14;100072.50;122980;1106;104430;-76
2022/06/10 02:40:30;;;;;;;;;;;;;;;19.90;60.23;100068.92;123467;1105;104547;-77
2022/06/10 02:43:02;;;;;;;;;;;;;;;19.92;60.17;100045.81;123153;1105;105143;-77
2022/06/10 02:45:33;;;;;;;;;;;;;;;19.96;59.14;100046.69;123025;1105;104456;-76
2022/06/10 02:48:06;;;;;;;;;;;;;;;19.96;59.21;100061.77;122766;1105;104332;-76
2022/06/10 02:50:34;;;;;;;;;;;;;;;19.94;59.68;100051.13;122664;1105;105700;-76
2022/06/10 02:53:03;;;;;;;;;;;;;;;19.86;59.70;100055.66;123131;1105;104428;-77
2022/06/10 02:55:31;;;;;;;;;;;;;;;19.83;59.38;100063.66;122731;1105;104505;-76
2022/06/10 03:03:43;;;;;;;;;;;;;;;19.92;59.22;100111.51;122804;1105;104559;-76
2022/06/10 03:06:15;;;;;;;;;;;;;;;19.97;60.25;100117.66;122823;1105;104264;-75
2022/06/10 03:08:45;;;;;;;;;;;;;;;19.99;59.58;100122.98;122844;1105;104382;-76
2022/06/10 03:11:16;;;;;;;;;;;;;;;19.99;60.29;100114.99;123284;1105;104206;-76
2022/06/10 03:14:06;;;;;;;;;;;;;;;19.98;60.74;100114.12;123484;1105;104565;-76
2022/06/10 03:16:42;;;;;;;;;;;;;;;19.96;60.47;100115.92;122771;1105;104411;-76
2022/06/10 03:19:17;;;;;;;;;;;;;;;19.96;61.65;100126.58;123365;1105;104315;-76
2022/06/10 03:21:55;;;;;;;;;;;;;;;19.94;61.20;100125.68;123293;1105;104321;-76
2022/06/10 03:24:26;;;;;;;;;;;;;;;19.93;60.09;100129.27;122910;1105;104422;-77
2022/06/10 03:26:58;;;;;;;;;;;;;;;19.92;60.87;100135.47;122856;1105;104412;-77
2022/06/10 03:29:28;;;;;;;;;;;;;;;19.91;60.60;100133.70;122576;1105;104238;-77
2022/06/10 03:32:01;;;;;;;;;;;;;;;19.86;61.15;100135.52;122856;1105;104482;-78
2022/06/10 03:34:31;;;;;;;;;;;;;;;19.80;61.97;100135.57;122861;1105;104255;-77
2022/06/10 03:37:00;;;;;;;;;;;;;;;19.71;61.75;100121.41;122891;1105;104489;-76
2022/06/10 03:39:29;;;;;;;;;;;;;;;19.62;63.85;100132.13;123025;1105;104239;-77
2022/06/10 03:42:00;;;;;;;;;;;;;;;19.53;64.74;100132.19;122915;1105;104405;-77
2022/06/10 03:44:28;;;;;;;;;;;;;;;19.42;65.49;100118.09;122777;1105;104441;-77
2022/06/10 03:46:57;;;;;;;;;;;;;;;19.34;64.97;100115.48;123095;1105;104437;-76
2022/06/10 03:49:28;;;;;;;;;;;;;;;19.30;65.22;100109.27;123374;1105;104341;-76
2022/06/10 03:51:56;;;;;;;;;;;;;;;19.25;64.44;100104.89;123091;1105;104389;-77
2022/06/10 03:54:23;;;;;;;;;;;;;;;19.18;65.33;100091.63;122977;1105;104489;-77
2022/06/10 03:56:52;;;;;;;;;;;;;;;19.18;64.52;100090.72;122996;1105;104306;-77
2022/06/10 03:59:20;;;;;;;;;;;;;;;19.19;65.35;100095.16;123152;1105;104440;-76
2022/06/10 04:01:47;;;;;;;;;;;;;;;19.17;65.32;100096.95;123088;1105;104345;-78
2022/06/10 04:04:15;;;;;;;;;;;;;;;19.18;64.92;100096.95;122950;1105;104469;-77
2022/06/10 04:06:43;;;;;;;;;;;;;;;19.26;64.73;100091.58;123198;1105;104630;-77
2022/06/10 04:09:13;;;;;;;;;;;;;;;19.37;64.68;100088.85;123249;1106;104354;-78
2022/06/10 04:11:40;;;;;;;;;;;;;;;19.45;64.25;100086.14;123316;1105;104363;-78
2022/06/10 04:14:08;;;;;;;;;;;;;;;19.55;64.48;100085.16;123338;1105;104168;-78
2022/06/10 04:16:36;;;;;;;;;;;;;;;19.63;64.21;100090.42;123213;1105;104175;-77
2022/06/10 04:19:04;;;;;;;;;;;;;;;19.74;64.34;100093.87;123324;1105;104475;-78
2022/06/10 04:21:31;;;;;;;;;;;;;;;19.80;65.19;100099.17;123298;1105;104439;-78
2022/06/10 04:23:59;;;;;;;;;;;;;;;19.85;64.27;100094.72;123140;1105;104431;-77
2022/06/10 04:26:27;;;;;;;;;;;;;;;19.91;65.10;100102.65;122796;1105;104558;-78
2022/06/10 04:28:54;;;;;;;;;;;;;;;19.97;65.08;100096.36;122800;1105;104354;-78
2022/06/10 04:31:22;;;;;;;;;;;;;;;19.99;64.70;100094.59;122825;1105;104440;-78
2022/06/10 04:33:49;;;;;;;;;;;;;;;20.01;64.10;100092.78;122772;1105;104450;-78
2022/06/10 04:36:18;;;;;;;;;;;;;;;20.02;63.82;100089.20;122942;1105;104428;-77
2022/06/10 04:38:46;;;;;;;;;;;;;;;20.05;64.55;100094.50;123240;1105;104238;-77
2022/06/10 04:41:15;;;;;;;;;;;;;;;20.10;64.86;100094.45;123375;1105;104185;-77
2022/06/10 04:43:43;;;;;;;;;;;;;;;20.14;64.90;100097.99;123285;1105;104380;-77
2022/06/10 04:46:14;;;;;;;;;;;;;;;20.08;65.38;100094.47;123283;1105;104307;-78
2022/06/10 04:48:42;;;;;;;;;;;;;;;20.05;65.24;100091.84;123374;1105;104489;-78
2022/06/10 04:51:09;;;;;;;;;;;;;;;20.04;65.35;100091.85;123500;1105;104313;-78
2022/06/10 04:53:38;;;;;;;;;;;;;;;20.03;67.21;100098.97;123456;1105;104267;-78
2022/06/10 04:56:06;;;;;;;;;;;;;;;19.97;67.29;100104.35;123265;1105;104449;-77
2022/06/10 04:58:34;;;;;;;;;;;;;;;19.89;66.85;100104.42;123295;1105;104361;-77
2022/06/10 05:01:02;;;;;;;;;;;;;;;19.85;66.91;100112.45;123449;1105;104463;-78
2022/06/10 05:03:30;;;;;;;;;;;;;;;19.83;68.18;100115.13;123193;1105;104396;-77
2022/06/10 05:05:57;;;;;;;;;;;;;;;19.79;66.09;100112.50;123379;1105;104415;-78
2022/06/10 05:08:25;;;;;;;;;;;;;;;19.77;66.74;100114.30;123401;1105;104188;-77
2022/06/10 05:10:53;;;;;;;;;;;;;;;19.77;66.48;100116.96;123216;1105;104265;-79
2022/06/10 05:13:23;;;;;;;;;;;;;;;19.78;67.03;100110.75;123497;1105;104064;-79
2022/06/10 05:15:53;;;;;;;;;;;;;;;19.80;66.89;100111.61;123749;1105;103843;-79
2022/06/10 05:18:23;;;;;;;;;;;;;;;19.86;65.84;100115.09;123706;1105;104874;-77
2022/06/10 05:20:54;;;;;;;;;;;;;;;19.89;66.52;100103.55;124377;1105;104367;-79
2022/06/10 05:23:22;;;;;;;;;;;;;;;19.92;66.55;100111.51;124648;1105;104255;-80
2022/06/10 05:25:51;;;;;;;;;;;;;;;19.94;66.55;100112.37;124763;1105;104371;-79
2022/06/10 05:28:20;;;;;;;;;;;;;;;19.90;67.76;100111.52;124512;1105;104382;-80
2022/06/10 05:30:57;;;;;;;;;;;;;;;19.89;66.09;100114.20;124882;1105;104085;-80
2022/06/10 05:34:44;;;;;;;;;;;;;;;19.90;66.00;100113.31;124806;1105;104007;-80
2022/06/10 05:36:18;;;;;;;;;;;;;;;19.93;66.78;100110.63;124461;1105;104315;-79
2022/06/10 05:38:46;;;;;;;;;;;;;;;20.04;66.37;100124.72;124715;1105;104361;-78
2022/06/10 05:44:03;;;;;;;;;;;;;;;20.21;66.71;100113.00;124746;1105;102950;-79
2022/06/10 05:46:35;;;;;;;;;;;;;;;20.32;66.11;100119.13;124003;1105;105588;-78
2022/06/10 05:49:06;;;;;;;;;;;;;;;20.41;66.52;100127.02;124198;1105;104239;-77
2022/06/10 05:51:34;;;;;;;;;;;;;;;20.47;66.68;100128.72;123704;1105;104354;-78
2022/06/10 05:54:05;;;;;;;;;;;;;;;20.52;66.28;100134.91;123439;1105;104417;-78
2022/06/10 05:56:36;;;;;;;;;;;;;;;20.53;67.14;100143.77;124354;1105;104242;-79
2022/06/10 05:59:06;;;;;;;;;;;;;;;20.55;66.53;100139.30;123439;1105;104255;-78
2022/06/10 06:01:36;;;;;;;;;;;;;;;20.57;67.46;100141.05;124780;1105;104227;-79
2022/06/10 06:04:07;;;;;;;;;;;;;;;20.62;66.71;100147.20;124715;1105;102495;-78
2022/06/10 06:06:40;;;;;;;;;;;;;;;20.71;67.32;100154.27;124926;1105;104361;-79
2022/06/10 06:09:16;;;;;;;;;;;;;;;20.80;66.54;100154.16;124689;1105;104556;-79
2022/06/10 06:11:47;;;;;;;;;;;;;;;20.88;67.74;100159.41;124934;1105;104566;-77
2022/06/10 06:14:18;;;;;;;;;;;;;;;20.91;66.69;100150.45;124679;1106;103327;-79
2022/06/10 06:16:54;;;;;;;;;;;;;;;20.97;66.99;100147.72;125688;1105;102276;-79
2022/06/10 06:19:22;;;;;;;;;;;;;;;21.03;67.43;100152.97;124945;1105;104261;-79
2022/06/10 06:21:51;;;;;;;;;;;;;;;21.06;67.15;100144.06;124782;1106;104242;-79
2022/06/10 06:24:22;;;;;;;;;;;;;;;21.12;67.68;100159.98;124788;1105;104179;-79
2022/06/10 06:26:52;;;;;;;;;;;;;;;21.20;67.66;100152.75;124691;1105;103081;-80
2022/06/10 06:29:23;;;;;;;;;;;;;;;21.32;67.88;100147.25;124892;1105;104253;-78
2022/06/10 06:31:52;;;;;;;;;;;;;;;21.44;67.02;100150.64;124970;1105;102908;-79
2022/06/10 06:34:20;;;;;;;;;;;;;;;21.50;66.90;100140.81;124828;1105;102425;-79
2022/06/10 06:36:50;;;;;;;;;;;;;;;21.59;67.46;100145.11;124777;1105;102166;-79
2022/06/10 06:39:23;;;;;;;;;;;;;;;21.65;67.59;100149.48;124937;1105;117785;-79
2022/06/10 06:41:52;;;;;;;;;;;;;;;21.69;66.96;100156.52;124711;1105;104175;-79
2022/06/10 06:44:27;;;;;;;;;;;;;;;21.72;67.07;100153.80;124687;1105;104197;-79
2022/06/10 06:46:58;;;;;;;;;;;;;;;21.70;67.69;100159.16;124694;1105;105085;-79
2022/06/10 06:49:28;;;;;;;;;;;;;;;21.67;66.96;100161.02;124746;1105;104287;-80
2022/06/10 06:52:08;;;;;;;;;;;;;;;21.63;67.27;100172.63;124643;1105;104182;-80
2022/06/10 06:54:37;;;;;;;;;;;;;;;21.56;67.15;100160.30;125118;1105;104258;-79
2022/06/10 06:57:09;;;;;;;;;;;;;;;21.51;69.12;100163.91;125049;1105;104178;-80
2022/06/10 06:59:38;;;;;;;;;;;;;;;21.46;68.21;100157.73;124845;1105;104153;-80
2022/06/10 07:02:09;;;;;;;;;;;;;;;21.49;67.38;100160.39;125125;1105;104357;-79
2022/06/10 07:04:38;;;;;;;;;;;;;;;21.51;68.23;100153.23;124983;1105;104124;-79
2022/06/10 07:07:09;;;;;;;;;;;;;;;21.60;67.78;100167.34;124939;1105;104069;-78
2022/06/10 07:10:04;;;;;;;;;;;;;;;21.64;67.75;100167.27;125008;1106;104312;-80
2022/06/10 07:12:33;;;;;;;;;;;;;;;21.69;69.23;100169.87;125102;1105;104179;-80
2022/06/10 07:15:25;;;;;;;;;;;;;;;;;;;;;
2022/06/10 07:17:56;;;;;;;;;;;;;;;21.68;68.78;100160.98;124719;1105;104246;-81
2022/06/10 07:20:30;;;;;;;;;;;;;;;21.64;68.54;100164.59;124716;1108;104223;-80
2022/06/10 07:22:59;;;;;;;;;;;;;;;21.68;67.98;100165.45;124788;1109;101933;-81
2022/06/10 07:25:36;;;;;;;;;;;;;;;21.71;67.68;100162.74;124761;1109;104214;-83
2022/06/10 07:28:08;;;;;;;;;;;;;;;21.70;67.21;100160.96;124764;1108;104236;-78
2022/06/10 07:30:47;;;;;;;;;;;;;;;21.73;68.28;100155.58;124585;1109;102576;-79
2022/06/10 07:33:22;;;;;;;;;;;;;;;21.70;67.12;100150.28;124524;1109;104162;-80
2022/06/10 07:36:07;;;;;;;;;;;;;;;21.71;67.55;100157.40;124490;1109;104118;-81
2022/06/10 07:39:28;;;;;;;;;;;;;;;21.69;68.15;100154.75;124040;1106;104332;-80
2022/06/10 07:42:01;;;;;;;;;;;;;;;21.59;68.35;100161.12;124145;1109;104251;-82
2022/06/10 07:44:45;;;;;;;;;;;;;;;21.49;68.20;100165.73;124239;1109;102881;-80
2022/06/10 07:50:42;;;;;;;;;;;;;;;21.36;68.21;100158.75;124637;1109;104124;-82
2022/06/10 07:53:23;;;;;;;;;;;;;;;21.27;68.86;100173.13;124439;1112;103307;-82
2022/06/10 07:56:10;;;;;;;;;;;;;;;;;;;;;
2022/06/10 07:58:58;;;;;;;;;;;;;;;21.03;68.78;100176.98;124643;1109;104038;-80
2022/06/10 08:01:46;;;;;;;;;;;;;;;20.90;68.37;100186.92;124823;1109;104178;-80
2022/06/10 08:04:22;;;;;;;;;;;;;;;20.77;70.84;100183.52;124527;1109;104184;-82
2022/06/10 08:06:55;;;;;;;;;;;;;;;20.67;69.12;100181.84;124624;1109;102771;-81
2022/06/10 08:09:32;;;;;;;;;;;;;;;20.55;70.52;100163.28;124250;1109;104329;-79
2022/06/10 08:12:38;;;;;;;;;;;;;;;20.55;69.90;100165.95;124662;1109;104242;-81
2022/06/10 08:15:16;;;;;;;;;;;;;;;20.53;71.13;100160.63;125240;1109;104243;-78
2022/06/10 08:18:36;;;;;;;;;;;;;;;20.61;69.51;100155.22;124786;1109;104373;-82
2022/06/10 08:24:41;;;;;;;;;;;;;;;20.83;71.24;100162.13;124344;1109;104434;-81
2022/06/10 08:27:24;;;;;;;;;;;;;;;20.91;71.20;100151.36;124487;1105;104424;-80
2022/06/10 08:29:55;;;;;;;;;;;;;;;21.08;70.45;100152.91;124423;1108;102885;-82
2022/06/10 08:33:09;;;;;;;;;;;;;;;;;;;;;
2022/06/10 08:35:57;;;;;;;;;;;;;;;;;;;;;
2022/06/10 08:38:38;;;;;;;;;;;;;;;21.64;72.64;100148.58;124635;1109;104258;-79
2022/06/10 08:42:05;;;;;;;;;;;;;;;21.70;71.55;100147.61;124627;1109;118799;-83
2022/06/10 08:44:41;;;;;;;;;;;;;;;21.63;71.04;100160.19;124748;1107;104523;-81
2022/06/10 08:47:47;;;;;;;;;;;;;;;21.62;72.28;100161.08;124745;1109;104198;-81
2022/06/10 08:50:36;;;;;;;;;;;;;;;21.63;71.99;100159.28;124595;1109;102911;-80
2022/06/10 08:53:27;;;;;;;;;;;;;;;21.61;72.55;100164.64;124616;1109;103393;-82
2022/06/10 08:56:07;;;;;;;;;;;;;;;21.64;71.64;100171.73;124562;1109;104302;-80
2022/06/10 08:59:10;;;;;;;;;;;;;;;21.70;72.40;100175.19;124525;1109;104303;-80
2022/06/10 09:01:56;;;;;;;;;;;;;;;;;;;;;
2022/06/10 09:04:41;;;;;;;;;;;;;;;21.62;74.10;100195.79;125637;1106;103209;-82
2022/06/10 09:07:30;;;;;;;;;;;;;;;21.48;73.54;100182.61;125612;1109;103003;-83
2022/06/10 09:10:14;;;;;;;;;;;;;;;;;;;;;
2022/06/10 09:13:05;;;;;;;;;;;;;;;21.39;73.98;100209.42;124787;1109;106995;-81
2022/06/10 09:15:57;;;;;;;;;;;;;;;21.30;73.14;100214.88;124820;1109;102957;-81
2022/06/10 09:18:28;;;;;;;;;;;;;;;21.21;72.91;100206.98;124813;1109;103768;-82
2022/06/10 09:21:10;;;;;;;;;;;;;;;21.18;73.50;100199.92;124700;1105;104374;-80
2022/06/10 09:23:46;;;;;;;;;;;;;;;21.15;73.99;100187.50;124865;1105;102570;-81
2022/06/10 09:26:46;;;;;;;;;;;;;;;21.16;73.52;100181.27;125013;1105;104402;-81
2022/06/10 09:29:24;;;;;;;;;;;;;;;21.17;73.33;100167.01;124968;1105;104357;-80
2022/06/10 09:31:59;;;;;;;;;;;;;;;21.23;73.88;100171.39;124692;1105;104417;-81
2022/06/10 09:34:38;;;;;;;;;;;;;;;21.35;74.36;100165.02;123825;1105;102927;-81
2022/06/10 09:37:13;;;;;;;;;;;;;;;21.61;74.68;100169.98;124749;1105;104255;-80
2022/06/10 09:42:49;;;;;;;;;;;;;;;21.88;74.34;100190.05;124786;1105;103448;-80
2022/06/10 09:45:30;;;;;;;;;;;;;;;21.87;73.53;100187.41;124977;1105;104922;-82
2022/06/10 09:48:18;;;;;;;;;;;;;;;21.94;73.26;100188.19;124944;1105;102377;-80
2022/06/10 09:51:24;;;;;;;;;;;;;;;22.15;72.20;100187.83;125285;1105;103902;-82
2022/06/10 09:54:02;;;;;;;;;;;;;;;22.52;73.85;100184.55;125231;1105;107189;-80
2022/06/10 09:56:51;;;;;;;;;;;;;;;22.76;72.97;100183.18;125041;1105;102488;-80
2022/06/10 09:59:29;;;;;;;;;;;;;;;22.97;71.36;100187.23;125110;1105;102997;-80
2022/06/10 10:02:04;;;;;;;;;;;;;;;23.14;71.49;100192.28;125049;1105;103195;-80
2022/06/10 10:04:55;;;;;;;;;;;;;;;23.32;69.26;100185.63;124993;1105;102726;-81
2022/06/10 10:07:39;;;;;;;;;;;;;;;23.37;68.31;100182.85;125047;1105;104373;-80
2022/06/10 10:10:16;;;;;;;;;;;;;;;23.45;68.81;100196.06;124820;1105;104427;-81
2022/06/10 10:12:59;;;;;;;;;;;;;;;23.54;68.73;100184.28;124853;1105;103815;-80
2022/06/10 10:15:34;;;;;;;;;;;;;;;23.60;68.02;100185.02;125063;1106;103214;-82
2022/06/10 10:18:22;;;;;;;;;;;;;;;23.63;68.41;100189.42;124785;1109;105769;-80
2022/06/10 10:21:10;;;;;;;;;;;;;;;23.57;65.70;100190.44;124851;1106;104073;-80
2022/06/10 10:23:42;;;;;;;;;;;;;;;23.54;65.80;100179.80;124995;1105;104376;-81
2022/06/10 10:26:18;;;;;;;;;;;;;;;23.60;65.25;100168.94;124882;1105;102074;-81
2022/06/10 10:28:50;;;;;;;;;;;;;;;23.68;63.06;100174.12;124602;1109;104411;-80
2022/06/10 10:31:35;;;;;;;;;;;;;;;23.75;63.27;100174.84;124944;1109;102794;-80
2022/06/10 10:34:08;;;;;;;;;;;;;;;23.93;64.07;100166.40;124801;1105;102952;-80
2022/06/10 10:36:49;;;;;;;;;;;;;;;23.98;62.30;100163.61;125166;1105;104287;-81
2022/06/10 10:39:25;;;;;;;;;;;;;;;23.92;57.77;100183.41;125288;1105;102314;-80
2022/06/10 10:41:56;;;;;;;;;;;;;;;24.02;61.08;100171.53;125137;1105;104354;-81
2022/06/10 10:44:29;;;;;;;;;;;;;;;24.07;60.17;100157.14;125099;1105;103024;-80
2022/06/10 10:47:09;;;;;;;;;;;;;;;24.16;58.21;100171.19;124777;1105;104230;-83
2022/06/10 10:49:54;;;;;;;;;;;;;;;24.18;56.10;100171.14;125055;1105;102701;-80
2022/06/10 10:52:28;;;;;;;;;;;;;;;24.33;57.15;100170.75;124857;1106;104269;-80
2022/06/10 10:55:06;;;;;;;;;;;;;;;24.45;54.35;100163.29;124919;1105;104377;-81
2022/06/10 10:57:46;;;;;;;;;;;;;;;24.74;55.79;100171.47;125064;1105;104259;-82
2022/06/10 11:00:30;;;;;;;;;;;;;;;24.85;54.81;100171.14;124787;1106;103420;-80
2022/06/10 11:03:01;;;;;;;;;;;;;;;24.83;55.34;100164.08;124902;1105;104141;-80
2022/06/10 11:05:38;;;;;;;;;;;;;;;24.76;56.56;100166.94;125139;1105;112738;-80
2022/06/10 11:08:20;;;;;;;;;;;;;;;24.78;56.79;100171.36;125270;1105;102366;-80
2022/06/10 11:14:19;;;;;;;;;;;;;;;24.62;54.37;100171.81;124870;1109;103141;-81
2022/06/10 11:17:15;;;;;;;;;;;;;;;;;;;;;
2022/06/10 11:19:55;;;;;;;;;;;;;;;24.64;53.44;100158.36;124884;1105;104242;-81
2022/06/10 11:22:34;;;;;;;;;;;;;;;24.64;54.19;100158.36;125301;1105;104287;-80
2022/06/10 11:26:16;;;;;;;;;;;;;;;;;;;;;
2022/06/10 11:29:11;;;;;;;;;;;;;;;24.73;53.16;100152.73;125268;1105;107833;-80
2022/06/10 11:31:57;;;;;;;;;;;;;;;24.82;54.35;100151.58;124873;1105;104236;-79
2022/06/10 11:34:29;;;;;;;;;;;;;;;24.93;52.73;100149.45;124910;1106;104226;-79
2022/06/10 11:37:40;;;;;;;;;;;;;;;25.10;54.45;100154.33;124872;1104;104757;-79
2022/06/10 11:40:18;;;;;;;;;;;;;;;25.05;52.04;100149.09;124965;1105;103001;-81
2022/06/10 11:43:07;;;;;;;;;;;;;;;25.07;51.86;100138.31;124807;1106;104386;-81
2022/06/10 11:49:17;;;;;;;;;;;;;;;25.20;50.06;100128.10;125450;1105;103470;-81
2022/06/10 11:52:13;;;;;;;;;;;;;;;25.32;50.84;100125.05;125178;1106;104018;-79
2022/06/10 12:01:18;;;;;;;;;;;;;;;25.75;44.35;100115.61;125313;1105;104200;-81
2022/06/10 12:04:16;;;;;;;;;;;;;;;25.97;47.47;100122.95;125748;1102;102207;-83
2022/06/10 12:06:51;;;;;;;;;;;;;;;26.26;46.57;100113.91;124716;1105;104175;-82
2022/06/10 12:09:34;;;;;;;;;;;;;;;26.26;44.67;100104.98;124807;1105;104172;-82
2022/06/10 12:12:18;;;;;;;;;;;;;;;26.12;43.92;100105.46;125069;1105;104219;-81
2022/06/10 12:14:54;;;;;;;;;;;;;;;26.15;46.09;100098.16;125115;1105;102803;-79
2022/06/10 12:17:33;;;;;;;;;;;;;;;26.20;44.19;100097.99;125062;1106;102945;-81
2022/06/10 12:20:18;;;;;;;;;;;;;;;26.26;45.90;100096.91;124961;1105;102948;-82
2022/06/10 12:22:50;;;;;;;;;;;;;;;26.28;45.28;100098.59;124782;1105;104355;-81
2022/06/10 12:25:24;;;;;;;;;;;;;;;26.35;46.57;100102.83;124884;1105;103758;-80
2022/06/10 12:28:13;;;;;;;;;;;;;;;26.48;47.17;100099.70;125153;1105;104174;-82
2022/06/10 12:31:00;;;;;;;;;;;;;;;26.47;45.69;100093.41;124768;1105;104254;-79
2022/06/10 12:33:55;;;;;;;;;;;;;;;;;;;;;
2022/06/10 12:36:29;;;;;;;;;;;;;;;26.38;45.81;100088.37;124910;1105;103374;-79
2022/06/10 12:39:26;;;;;;;;;;;;;;;;;;;;;
2022/06/10 12:42:03;;;;;;;;;;;;;;;26.48;45.56;100079.05;125068;1106;102455;-79
2022/06/10 12:44:45;;;;;;;;;;;;;;;26.58;45.22;100071.50;125131;1105;104323;-79
2022/06/10 12:47:31;;;;;;;;;;;;;;;26.66;45.88;100074.84;125142;1105;104264;-80
2022/06/10 12:53:17;;;;;;;;;;;;;;;26.63;44.18;100074.92;124962;1105;104268;-79
2022/06/10 12:55:53;;;;;;;;;;;;;;;26.70;44.43;100064.83;125180;1102;102942;-80
2022/06/10 12:59:15;;;;;;;;;;;;;;;;;;;;;
2022/06/10 13:02:11;;;;;;;;;;;;;;;26.78;44.70;100077.98;124697;1106;103261;-81
2022/06/10 13:05:22;;;;;;;;;;;;;;;26.76;42.70;100080.73;124791;1106;104370;-80
2022/06/10 13:08:30;;;;;;;;;;;;;;;;;;;;;
2022/06/10 13:11:01;;;;;;;;;;;;;;;26.82;44.05;100075.13;124810;1106;103569;-78
2022/06/10 13:13:39;;;;;;;;;;;;;;;26.80;43.70;100071.63;124780;1105;104431;-79
2022/06/10 13:16:40;;;;;;;;;;;;;;;;;;;;;
2022/06/10 13:19:36;;;;;;;;;;;;;;;27.01;43.32;100067.20;124875;1105;103860;-82
2022/06/10 13:22:33;;;;;;;;;;;;;;;27.00;43.27;100061.88;124696;1105;107116;-79
2022/06/10 13:25:34;;;;;;;;;;;;;;;27.28;43.03;100071.55;124940;1105;104248;-80
2022/06/10 13:28:22;;;;;;;;;;;;;;;27.22;42.58;100069.97;124794;1105;102512;-79
2022/06/10 13:31:16;;;;;;;;;;;;;;;27.02;40.89;100074.34;125142;1106;102172;-79
2022/06/10 13:34:07;;;;;;;;;;;;;;;26.88;41.25;100069.50;125038;1105;103036;-81
2022/06/10 13:36:58;;;;;;;;;;;;;;;26.84;41.77;100084.00;124841;1105;103842;-79
2022/06/10 13:39:38;;;;;;;;;;;;;;;26.78;41.07;100086.06;125021;1105;104233;-79
2022/06/10 13:42:42;;;;;;;;;;;;;;;;;;;;;
2022/06/10 13:49:42;;;;;;;;;;;;;;;26.78;41.35;100084.23;125193;1106;104176;-81
2022/06/10 13:52:29;;;;;;;;;;;;;;;26.79;41.85;100086.00;125231;1105;103035;-83
2022/06/10 13:55:45;;;;;;;;;;;;;;;26.96;41.51;100085.36;125108;1104;102381;-82
2022/06/10 14:01:14;;;;;;;;;;;;;;;27.09;39.75;100085.75;125199;1105;103273;-81
2022/06/10 14:04:09;;;;;;;;;;;;;;;26.97;40.50;100083.53;125240;1105;105085;-83
2022/06/10 14:07:01;;;;;;;;;;;;;;;26.83;40.93;100090.34;125113;1103;104146;-81
2022/06/10 14:09:41;;;;;;;;;;;;;;;26.64;41.01;100083.86;124924;1103;104384;-82
2022/06/10 14:12:25;;;;;;;;;;;;;;;26.43;40.67;100083.72;125050;1105;104175;-84